Time;durP1;ratioP1;P1;durP2;ratioP2;P2;SDS_P1;SDS_P2;PMS_P1;PMS_P2;Temp;Humidity;BMP_temperature;BMP_pressure;BME280_temperature;BME280_humidity;BME280_pressure;Samples;Min_cycle;Max_cycle;Signal;HPM_P1;HPM_P2
2022/09/02 00:00:53;;;;;;;4.85;2.70;;;;;;;;;;5109275;28;20455;-80
2022/09/02 00:03:20;;;;;;;4.78;2.28;;;;;;;;;;5077961;28;20048;-81
2022/09/02 00:05:46;;;;;;;3.17;2.25;;;;;;;;;;5092005;28;20493;-80
2022/09/02 00:08:13;;;;;;;3.15;2.30;;;;;;;;;;5106333;28;20123;-80
2022/09/02 00:10:40;;;;;;;4.30;3.10;;;;;;;;;;5091901;28;20035;-79
2022/09/02 00:13:07;;;;;;;2.85;2.22;;;;;;;;;;5110542;28;20020;-83
2022/09/02 00:15:33;;;;;;;5.50;3.03;;;;;;;;;;5112137;28;20427;-84
2022/09/02 00:18:00;;;;;;;4.15;2.55;;;;;;;;;;5096026;28;20043;-87
2022/09/02 00:20:27;;;;;;;3.95;2.70;;;;;;;;;;5078222;28;20103;-87
2022/09/02 00:22:53;;;;;;;3.30;2.20;;;;;;;;;;5101001;28;20028;-86
2022/09/02 00:25:20;;;;;;;4.20;2.70;;;;;;;;;;5112082;28;20046;-86
2022/09/02 00:27:46;;;;;;;4.70;2.60;;;;;;;;;;5111015;28;20019;-85
2022/09/02 00:30:13;;;;;;;3.53;3.05;;;;;;;;;;5091015;28;20020;-83
2022/09/02 00:32:39;;;;;;;3.03;1.90;;;;;;;;;;5121082;27;20020;-84
2022/09/02 00:35:05;;;;;;;6.22;3.67;;;;;;;;;;5082959;28;20474;-84
2022/09/02 00:37:31;;;;;;;3.63;2.47;;;;;;;;;;5098068;28;20058;-85
2022/09/02 00:39:57;;;;;;;11.48;3.28;;;;;;;;;;5080239;28;20016;-84
2022/09/02 00:42:24;;;;;;;4.78;2.33;;;;;;;;;;5105434;28;20028;-85
2022/09/02 00:44:51;;;;;;;2.85;2.22;;;;;;;;;;5111598;28;20024;-86
2022/09/02 00:47:17;;;;;;;3.38;2.20;;;;;;;;;;5107463;28;20022;-85
2022/09/02 00:49:45;;;;;;;3.33;2.35;;;;;;;;;;5111520;28;20043;-85
2022/09/02 00:52:23;;;;;;;4.78;2.15;;;;;;;;;;5111505;28;20024;-84
2022/09/02 00:55:12;;;;;;;2.78;1.95;;;;;;;;;;5101104;28;20489;-84
2022/09/02 00:57:41;;;;;;;3.22;2.08;;;;;;;;;;5080320;28;20446;-84
2022/09/02 01:00:16;;;;;;;2.88;1.90;;;;;;;;;;5095151;28;20015;-85
2022/09/02 01:02:43;;;;;;;3.10;1.90;;;;;;;;;;5082970;28;20382;-85
2022/09/02 01:05:11;;;;;;;3.28;2.28;;;;;;;;;;5112155;28;20024;-85
2022/09/02 01:07:38;;;;;;;3.17;2.47;;;;;;;;;;5083290;28;20020;-83
2022/09/02 01:10:06;;;;;;;2.72;2.22;;;;;;;;;;5104513;28;20031;-84
2022/09/02 01:12:32;;;;;;;4.82;2.92;;;;;;;;;;5108613;28;20008;-84
2022/09/02 01:14:59;;;;;;;4.32;2.78;;;;;;;;;;5111096;28;20024;-85
2022/09/02 01:17:25;;;;;;;4.78;3.38;;;;;;;;;;5118205;27;20020;-84
2022/09/02 01:19:54;;;;;;;6.35;3.30;;;;;;;;;;5099994;28;20976;-84
2022/09/02 01:22:22;;;;;;;3.78;2.92;;;;;;;;;;5110987;28;20027;-85
2022/09/02 01:24:48;;;;;;;3.38;2.50;;;;;;;;;;5110960;28;20035;-85
2022/09/02 01:27:19;;;;;;;4.13;2.97;;;;;;;;;;5099893;28;20020;-87
2022/09/02 01:29:46;;;;;;;3.25;2.22;;;;;;;;;;5076708;28;20032;-84
2022/09/02 01:32:12;;;;;;;4.88;2.63;;;;;;;;;;5104688;28;20378;-83
2022/09/02 01:34:38;;;;;;;3.20;2.35;;;;;;;;;;5112051;28;20059;-83
2022/09/02 01:37:04;;;;;;;3.85;2.30;;;;;;;;;;5089568;28;20048;-84
2022/09/02 01:39:30;;;;;;;3.47;2.30;;;;;;;;;;5107175;28;20044;-82
2022/09/02 01:41:56;;;;;;;4.25;2.90;;;;;;;;;;5079403;28;20111;-82
2022/09/02 01:44:23;;;;;;;4.63;2.78;;;;;;;;;;5075949;28;20016;-84
2022/09/02 01:46:50;;;;;;;4.25;3.55;;;;;;;;;;5088998;28;20021;-84
2022/09/02 01:49:16;;;;;;;4.75;3.17;;;;;;;;;;5073225;28;20360;-83
2022/09/02 01:51:42;;;;;;;5.07;3.70;;;;;;;;;;5077055;28;20107;-85
2022/09/02 01:54:08;;;;;;;6.25;3.35;;;;;;;;;;5085551;28;20493;-85
2022/09/02 01:56:34;;;;;;;4.65;3.47;;;;;;;;;;5106764;28;20016;-84
2022/09/02 01:59:01;;;;;;;4.78;3.80;;;;;;;;;;5065426;28;20042;-85
2022/09/02 02:01:27;;;;;;;5.90;3.72;;;;;;;;;;5080242;28;20112;-83
2022/09/02 02:03:53;;;;;;;5.68;3.95;;;;;;;;;;5073828;28;20540;-84
2022/09/02 02:06:19;;;;;;;6.13;3.92;;;;;;;;;;5083294;28;20032;-85
2022/09/02 02:08:46;;;;;;;5.85;4.05;;;;;;;;;;5074643;28;20032;-83
2022/09/02 02:11:17;;;;;;;6.13;4.45;;;;;;;;;;5081264;28;20024;-82
2022/09/02 02:13:43;;;;;;;7.43;5.00;;;;;;;;;;5077107;28;20017;-82
2022/09/02 02:16:10;;;;;;;7.75;5.00;;;;;;;;;;5072575;28;20506;-82
2022/09/02 02:18:36;;;;;;;7.95;5.40;;;;;;;;;;5072471;28;20159;-83
2022/09/02 02:21:02;;;;;;;9.45;5.88;;;;;;;;;;5072390;28;20383;-80
2022/09/02 02:23:28;;;;;;;7.88;4.88;;;;;;;;;;5106902;27;20475;-82
2022/09/02 02:25:54;;;;;;;6.22;5.30;;;;;;;;;;5075614;28;20024;-81
2022/09/02 02:28:20;;;;;;;10.30;5.68;;;;;;;;;;5073984;28;20029;-82
2022/09/02 02:30:46;;;;;;;7.00;6.05;;;;;;;;;;5072321;28;20121;-81
2022/09/02 02:33:13;;;;;;;7.95;5.80;;;;;;;;;;5071994;28;20031;-83
2022/09/02 02:35:39;;;;;;;7.90;5.15;;;;;;;;;;5072365;28;20017;-86
2022/09/02 02:38:05;;;;;;;6.55;5.10;;;;;;;;;;5100278;28;20053;-81
2022/09/02 02:40:32;;;;;;;9.68;5.10;;;;;;;;;;5064104;28;20017;-85
2022/09/02 02:42:58;;;;;;;8.65;6.15;;;;;;;;;;5066215;28;20103;-85
2022/09/02 02:45:25;;;;;;;6.93;5.43;;;;;;;;;;5052493;28;20025;-83
2022/09/02 02:47:51;;;;;;;8.85;6.15;;;;;;;;;;5065533;28;20020;-83
2022/09/02 02:50:18;;;;;;;7.35;5.25;;;;;;;;;;5057992;28;20035;-85
2022/09/02 02:52:45;;;;;;;5.82;4.50;;;;;;;;;;5061530;28;20081;-82
2022/09/02 02:55:12;;;;;;;6.70;6.00;;;;;;;;;;5066009;28;20020;-85
2022/09/02 02:57:40;;;;;;;7.00;4.95;;;;;;;;;;5051955;28;20040;-84
2022/09/02 03:00:11;;;;;;;9.07;5.28;;;;;;;;;;5065699;28;20021;-83
2022/09/02 03:02:37;;;;;;;7.07;4.65;;;;;;;;;;5051647;28;20028;-84
2022/09/02 03:05:04;;;;;;;7.20;4.40;;;;;;;;;;5051931;28;20376;-83
2022/09/02 03:07:30;;;;;;;6.00;4.72;;;;;;;;;;5039220;28;20009;-83
2022/09/02 03:09:56;;;;;;;5.28;4.00;;;410.20;2355.20;;;;;;5063961;28;21110;-80
2022/09/02 03:12:22;;;;;;;5.45;4.15;;;410.00;2355.20;;;;;;5039150;28;20051;-81
2022/09/02 03:14:48;;;;;;;9.43;6.47;;;410.00;2355.20;;;;;;5061523;28;20191;-79
2022/09/02 03:17:14;;;;;;;6.78;4.55;;;410.00;2355.20;;;;;;5069085;28;20459;-80
2022/09/02 03:19:40;;;;;;;5.55;4.03;;;410.00;2355.20;;;;;;5058928;28;20025;-83
2022/09/02 03:22:06;;;;;;;7.55;4.40;;;410.00;2355.20;;;;;;5056949;28;20029;-83
2022/09/02 03:24:32;;;;;;;6.95;4.45;;;410.00;2355.20;;;;;;5051319;28;20020;-81
2022/09/02 03:26:57;;;;;;;7.20;5.40;;;410.00;2355.20;;;;;;5059417;28;20032;-80
2022/09/02 03:29:23;;;;;;;4.53;3.80;;;410.10;2355.20;;;;;;5070769;28;20039;-82
2022/09/02 03:31:49;;;;;;;6.13;4.53;;;410.10;2355.20;;;;;;5051179;28;20025;-81
2022/09/02 03:34:15;;;;;;;5.43;4.30;;;410.20;2355.20;;;;;;5050956;28;20063;-81
2022/09/02 03:36:43;;;;;;;6.07;4.55;;;410.20;2355.20;;;;;;5069969;28;20016;-81
2022/09/02 03:39:10;;;;;;;5.82;3.45;;;410.10;2355.20;;;;;;5060169;28;20078;-82
2022/09/02 03:41:40;;;;;;;5.25;3.67;;;410.10;2355.20;;;;;;5048792;28;20048;-81
2022/09/02 03:44:06;;;;;;;4.47;3.55;;;410.30;2355.20;;;;;;5051190;28;20037;-78
2022/09/02 03:46:32;;;;;;;4.85;3.75;;;410.40;2355.20;;;;;;5051377;28;20527;-81
2022/09/02 03:48:58;;;;;;;5.75;4.28;;;410.40;2355.20;;;;;;5051119;28;20120;-82
2022/09/02 03:51:25;;;;;;;4.28;3.38;;;410.40;2355.20;;;;;;5052350;28;20056;-81
2022/09/02 03:53:51;;;;;;;4.55;3.25;;;410.40;2355.20;;;;;;5057046;28;20056;-81
2022/09/02 03:56:17;;;;;;;3.47;2.58;;;410.40;2355.20;;;;;;5071141;28;20376;-81
2022/09/02 03:58:44;;;;;;;6.03;2.63;;;410.40;2355.20;;;;;;5056262;28;20057;-83
2022/09/02 04:01:16;;;;;;;5.68;3.55;;;410.40;2355.20;;;;;;5052704;28;20096;-79
2022/09/02 04:03:42;;;;;;;4.47;3.22;;;410.20;2355.20;;;;;;5048297;28;20025;-82
2022/09/02 04:06:12;;;;;;;3.83;2.85;;;410.30;2355.20;;;;;;5050616;28;20418;-83
2022/09/02 04:08:43;;;;;;;4.95;3.10;;;410.20;2355.20;;;;;;5039961;28;20044;-83
2022/09/02 04:11:13;;;;;;;4.00;2.53;;;410.10;2355.20;;;;;;5050725;28;20048;-84
2022/09/02 04:13:39;;;;;;;3.75;2.70;;;410.20;2355.20;;;;;;5059633;28;20025;-80
2022/09/02 04:16:11;;;;;;;3.58;2.30;;;410.20;2355.20;;;;;;5054607;28;20029;-81
2022/09/02 04:18:37;;;;;;;2.85;2.10;;;410.20;2355.20;;;;;;5045739;28;20459;-78
2022/09/02 04:21:03;;;;;;;4.97;2.47;;;410.30;2355.20;;;;;;5057407;28;20108;-82
2022/09/02 04:23:29;;;;;;;7.47;2.70;;;410.30;2355.20;;;;;;5056051;28;20114;-77
2022/09/02 04:25:55;;;;;;;4.95;1.90;;;410.30;2355.20;;;;;;5059018;28;20025;-78
2022/09/02 04:28:22;;;;;;;2.92;1.73;;;;;;;;;;5063989;28;20060;-77
2022/09/02 04:30:47;;;;;;;5.00;2.97;;;410.40;2355.20;;;;;;5057143;28;20044;-78
2022/09/02 04:33:13;;;;;;;4.10;2.25;;;410.30;2355.20;;;;;;5059231;28;20020;-78
2022/09/02 04:35:41;;;;;;;5.80;3.10;;;410.20;2355.20;;;;;;5063965;28;20091;-78
2022/09/02 04:38:07;;;;;;;3.53;2.40;;;410.10;2355.20;;;;;;5056903;28;20049;-78
2022/09/02 04:40:32;;;;;;;5.32;2.80;;;410.10;2355.20;;;;;;5053900;28;20032;-77
2022/09/02 04:42:59;;;;;;;2.05;1.70;;;410.20;2355.20;;;;;;5053603;28;20104;-80
2022/09/02 04:45:25;;;;;;;5.20;2.65;;;410.20;2355.20;;;;;;5059878;28;20086;-79
2022/09/02 04:47:51;;;;;;;3.90;2.35;;;410.20;2355.20;;;;;;5061203;28;20460;-79
2022/09/02 04:50:17;;;;;;;4.43;2.55;;;410.20;2355.20;;;;;;5053609;28;20021;-79
2022/09/02 04:52:42;;;;;;;3.47;2.38;;;410.20;2355.20;;;;;;5064075;28;20081;-79
2022/09/02 04:55:09;;;;;;;2.78;2.08;;;410.20;2355.20;;;;;;5060255;28;20100;-80
2022/09/02 04:57:35;;;;;;;4.13;2.40;;;410.20;2355.20;;;;;;5073466;28;20024;-78
2022/09/02 05:00:06;;;;;;;3.00;2.10;;;410.20;2355.20;;;;;;5073125;28;20020;-78
2022/09/02 05:02:32;;;;;;;11.95;4.53;;;;;;;;;;5052904;28;20063;-79
2022/09/02 05:04:58;;;;;;;14.95;9.52;;;410.40;2355.20;;;;;;5066826;28;20070;-78
2022/09/02 05:07:24;;;;;;;15.23;10.13;;;410.20;2355.20;;;;;;5054055;28;20063;-78
2022/09/02 05:09:54;;;;;;;5.32;3.05;;;410.30;2355.20;;;;;;5053235;28;20047;-78
2022/09/02 05:12:20;;;;;;;7.68;5.55;;;410.30;2355.20;;;;;;5066968;28;20043;-78
2022/09/02 05:14:47;;;;;;;12.05;8.48;;;410.30;2355.20;;;;;;5043403;28;20472;-78
2022/09/02 05:17:14;;;;;;;4.07;2.80;;;410.30;2227.20;;;;;;5051273;28;20021;-77
2022/09/02 05:19:40;;;;;;;2.75;1.75;;;410.30;2355.20;;;;;;5064767;28;20036;-78
2022/09/02 05:22:05;;;;;;;3.03;2.10;;;410.30;2355.20;;;;;;5067996;28;20021;-78
2022/09/02 05:24:31;;;;;;;5.07;2.80;;;410.30;2355.20;;;;;;5052493;28;20025;-77
2022/09/02 05:26:57;;;;;;;3.60;2.47;;;410.40;2355.20;;;;;;5052790;28;20040;-79
2022/09/02 05:29:23;;;;;;;4.30;2.00;;;410.50;2355.20;;;;;;5052257;28;20395;-78
2022/09/02 05:31:49;;;;;;;4.57;1.98;;;410.50;2355.20;;;;;;5052803;28;20029;-79
2022/09/02 05:34:16;;;;;;;3.90;2.45;;;410.50;2355.20;;;;;;5054518;28;20047;-83
2022/09/02 05:36:43;;;;;;;5.75;2.45;;;435.30;2355.20;;;;;;5053430;28;20111;-83
2022/09/02 05:39:08;;;;;;;3.85;2.67;;;435.20;2355.20;;;;;;5067457;28;20475;-84
2022/09/02 05:41:35;;;;;;;4.65;2.58;;;435.20;2355.20;;;;;;5056549;28;20025;-85
2022/09/02 05:44:03;;;;;;;6.75;2.78;;;435.20;2227.20;;;;;;5053281;28;20021;-85
2022/09/02 05:46:30;;;;;;;3.72;2.50;;;435.30;2355.20;;;;;;5055043;28;20803;-85
2022/09/02 05:49:06;;;;;;;3.30;2.05;;;435.30;2355.20;;;;;;5053166;28;20056;-83
2022/09/02 05:51:47;;;;;;;6.50;2.88;;;435.40;2355.20;;;;;;5066761;28;20024;-86
2022/09/02 05:54:16;;;;;;;2.88;2.03;;;435.40;2355.20;;;;;;5053608;28;20029;-83
2022/09/02 05:56:44;;;;;;;5.60;3.15;;;435.30;2355.20;;;;;;5056489;28;20460;-81
2022/09/02 05:59:11;;;;;;;4.97;3.38;;;435.20;2355.20;;;;;;5047931;28;20025;-80
2022/09/02 06:01:37;;;;;;;2.53;1.80;;;435.30;2355.20;;;;;;5072882;28;20021;-83
2022/09/02 06:04:04;;;;;;;4.30;2.28;;;435.30;2355.20;;;;;;5053194;28;20075;-83
2022/09/02 06:06:31;;;;;;;5.68;3.33;;;435.20;2355.20;;;;;;5059724;28;20117;-81
2022/09/02 06:08:58;;;;;;;6.30;5.18;;;435.20;2073.60;;;;;;5062432;28;20030;-81
2022/09/02 06:11:24;;;;;;;9.57;5.10;;;435.30;2355.20;;;;;;5042747;28;20052;-79
2022/09/02 06:13:51;;;;;;;8.77;5.32;;;435.50;2355.20;;;;;;5054670;28;20407;-83
2022/09/02 06:16:20;;;;;;;5.95;4.13;;;435.30;2355.20;;;;;;5063599;28;20045;-79
2022/09/02 06:18:47;;;;;;;2.35;1.63;;;435.30;2355.20;;;;;;5066718;28;20055;-82
2022/09/02 06:21:13;;;;;;;5.97;3.20;;;435.30;1126.40;;;;;;5061046;28;20114;-86
2022/09/02 06:23:39;;;;;;;4.22;2.45;;;410.40;2355.20;;;;;;5073297;28;20028;-85
2022/09/02 06:26:07;;;;;;;3.35;2.70;;;410.30;2355.20;;;;;;5059001;28;20035;-87
2022/09/02 06:28:34;;;;;;;7.45;4.07;;;410.30;2355.20;;;;;;5065774;28;20032;-86
2022/09/02 06:31:09;;;;;;;3.50;1.80;;;410.40;2355.20;;;;;;5053235;28;20029;-85
2022/09/02 06:33:35;;;;;;;3.13;2.22;;;410.40;2355.20;;;;;;5037254;28;20105;-85
2022/09/02 06:36:00;;;;;;;2.30;1.38;;;410.30;2355.20;;;;;;5045121;28;20119;-86
2022/09/02 06:38:26;;;;;;;1.35;1.20;;;410.30;2355.20;;;;;;5068418;28;20097;-86
2022/09/02 06:40:54;;;;;;;3.97;2.83;;;410.20;2355.20;;;;;;5069447;28;20040;-86
2022/09/02 06:43:20;;;;;;;9.80;6.68;;;410.10;2355.20;;;;;;5071867;28;20096;-86
2022/09/02 06:45:46;;;;;;;3.45;2.17;;;410.20;2355.20;;;;;;5056842;28;20025;-86
2022/09/02 06:48:12;;;;;;;2.80;1.92;;;410.10;2355.20;;;;;;5052312;28;20396;-82
2022/09/02 06:50:45;;;;;;;5.90;2.88;;;410.10;2355.20;;;;;;5066220;28;20021;-85
2022/09/02 06:53:12;;;;;;;5.32;3.95;;;;;;;;;;5069617;28;20025;-86
2022/09/02 06:55:39;;;;;;;6.88;4.90;;;;;;;;;;5056626;28;20044;-87
2022/09/02 06:58:05;;;;;;;10.32;7.68;;;;;;;;;;5072796;28;20031;-85
2022/09/02 07:00:34;;;;;;;8.80;4.90;;;;;;;;;;5058106;28;20027;-86
2022/09/02 07:05:45;;;;;;;5.18;3.72;;;;;;;;;;5063622;28;20074;-87
2022/09/02 07:08:11;;;;;;;3.67;2.28;;;;;;;;;;5062658;28;20163;-87
2022/09/02 07:10:41;;;;;;;7.85;5.97;;;;;;;;;;5056840;28;20021;-87
2022/09/02 07:13:07;;;;;;;5.72;4.25;;;;;;;;;;5053169;28;20115;-87
2022/09/02 07:15:34;;;;;;;8.77;6.32;;;;;;;;;;5058749;28;20088;-87
2022/09/02 07:18:00;;;;;;;6.97;4.05;;;;;;;;;;5069428;28;20661;-85
2022/09/02 07:20:26;;;;;;;4.13;2.53;;;;;;;;;;5046232;28;20510;-87
2022/09/02 07:22:54;;;;;;;4.93;3.47;;;;;;;;;;5065037;28;20066;-88
2022/09/02 07:25:20;;;;;;;13.35;4.18;;;;;;;;;;5059102;28;20021;-86
2022/09/02 07:27:46;;;;;;;2.42;1.67;;;;;;;;;;5068828;28;20116;-86
2022/09/02 07:30:12;;;;;;;7.90;3.67;;;;;;;;;;5065615;28;20435;-86
2022/09/02 07:32:39;;;;;;;10.52;7.72;;;;;;;;;;5052489;28;20017;-87
2022/09/02 07:35:05;;;;;;;4.50;2.55;;;;;;;;;;5052137;28;20024;-85
2022/09/02 07:37:33;;;;;;;1.63;1.40;;;;;;;;;;5066160;28;20477;-86
2022/09/02 07:39:59;;;;;;;3.95;2.55;;;;;;;;;;5077913;28;20012;-84
2022/09/02 07:42:25;;;;;;;2.47;1.80;;;;;;;;;;5086941;28;20083;-87
2022/09/02 07:44:52;;;;;;;3.67;1.73;;;;;;;;;;5097820;28;20081;-87
2022/09/02 07:47:18;;;;;;;4.60;2.92;;;;;;;;;;5094930;28;20020;-87
2022/09/02 07:49:44;;;;;;;3.88;2.58;;;;;;;;;;5083159;28;20564;-87
2022/09/02 07:52:10;;;;;;;3.45;2.05;;;;;;;;;;5097082;28;20020;-87
2022/09/02 07:54:38;;;;;;;2.33;1.67;;;;;;;;;;5123584;28;20034;-86
2022/09/02 07:57:05;;;;;;;4.78;2.30;;;;;;;;;;5070970;28;20020;-86
2022/09/02 07:59:31;;;;;;;4.20;2.15;;;;;;;;;;5077591;28;20021;-86
2022/09/02 08:01:57;;;;;;;5.03;2.78;;;;;;;;;;5077918;28;20111;-86
2022/09/02 08:04:24;;;;;;;4.97;2.55;;;;;;;;;;5110025;28;20048;-85
2022/09/02 08:06:51;;;;;;;2.42;1.70;;;;;;;;;;5111365;28;20040;-87
2022/09/02 08:09:18;;;;;;;4.07;2.28;;;;;;;;;;5118072;28;20036;-85
2022/09/02 08:11:46;;;;;;;3.65;2.20;;;;;;;;;;5085639;28;20024;-86
2022/09/02 08:14:16;;;;;;;5.90;2.58;;;;;;;;;;5083717;28;20068;-86
2022/09/02 08:16:43;;;;;;;3.13;2.13;;;;;;;;;;5085445;28;20020;-85
2022/09/02 08:19:09;;;;;;;2.88;2.28;;;;;;;;;;5112002;28;20020;-86
2022/09/02 08:21:35;;;;;;;4.55;2.38;;;;;;;;;;5103135;28;20488;-85
2022/09/02 08:24:02;;;;;;;3.72;3.00;;;;;;;;;;5098992;28;20489;-83
2022/09/02 08:26:29;;;;;;;2.70;1.80;;;;;;;;;;5113322;27;20543;-86
2022/09/02 08:28:55;;;;;;;5.43;2.72;;;;;;;;;;5079077;28;20070;-85
2022/09/02 08:31:22;;;;;;;4.60;3.47;;;;;;;;;;5097951;28;20108;-86
2022/09/02 08:33:48;;;;;;;2.60;1.90;;;;;;;;;;5113315;28;20017;-84
2022/09/02 08:36:14;;;;;;;1.75;1.30;;;;;;;;;;5114631;28;20055;-87
2022/09/02 08:38:41;;;;;;;6.43;2.53;;;;;;;;;;5086916;28;20084;-86
2022/09/02 08:41:13;;;;;;;4.45;3.15;;;;;;;;;;5086988;28;20102;-87
2022/09/02 08:43:41;;;;;;;4.73;2.93;;;;;;;;;;5098176;28;20482;-85
2022/09/02 08:46:10;;;;;;;5.60;2.72;;;;;;;;;;5081804;28;20042;-87
2022/09/02 08:48:52;;;;;;;3.08;2.10;;;;;;;;;;5103380;28;20020;-84
2022/09/02 08:51:26;;;;;;;4.13;2.10;;;;;;;;;;5097946;28;20567;-86
2022/09/02 08:54:01;;;;;;;4.47;2.35;;;;;;;;;;5098427;28;20030;-87
2022/09/02 08:56:27;;;;;;;2.13;1.40;;;;;;;;;;5102951;27;20020;-87
2022/09/02 08:58:56;;;;;;;4.82;2.47;;;;;;;;;;5083228;28;20018;-81
2022/09/02 09:01:38;;;;;;;4.47;1.95;;;;;;;;;;5125063;27;20035;-86
2022/09/02 09:04:13;;;;;;;4.13;2.42;;;;;;;;;;5087774;28;20055;-86
2022/09/02 09:06:58;;;;;;;2.30;1.70;;;;;;;;;;5099454;28;20020;-82
2022/09/02 09:09:30;;;;;;;2.50;1.42;;;;;;;;;;5087639;28;20486;-84
2022/09/02 09:12:02;;;;;;;3.72;2.45;;;;;;;;;;5095189;28;20108;-86
2022/09/02 09:14:34;;;;;;;2.30;1.65;;;;;;;;;;5091288;28;20354;-81
2022/09/02 09:17:06;;;;;;;2.80;2.05;;;;;;;;;;5111759;28;20016;-82
2022/09/02 09:19:48;;;;;;;1.85;1.02;;;;;;;;;;5101508;28;20577;-84
2022/09/02 09:22:15;;;;;;;2.03;1.50;;;;;;;;;;5079936;28;20521;-85
2022/09/02 09:24:44;;;;;;;5.10;1.60;;;;;;;;;;5082049;28;20111;-84
2022/09/02 09:27:21;;;;;;;5.15;2.53;;;;;;;;;;5088275;28;20483;-85
2022/09/02 09:29:47;;;;;;;2.30;1.63;;;;;;;;;;5076168;28;20044;-84
2022/09/02 09:32:32;;;;;;;2.58;1.77;;;;;;;;;;5088515;28;20138;-81
2022/09/02 09:35:11;;;;;;;2.30;1.60;;;;;;;;;;5085108;28;20016;-83
2022/09/02 09:37:39;;;;;;;1.60;1.27;;;;;;;;;;5081435;28;20023;-84
2022/09/02 09:40:21;;;;;;;3.05;2.00;;;;;;;;;;5082917;28;20099;-84
2022/09/02 09:42:57;;;;;;;2.88;1.55;;;;;;;;;;5118766;27;20051;-85
2022/09/02 09:45:34;;;;;;;4.53;2.65;;;;;;;;;;5110886;28;20028;-81
2022/09/02 09:48:12;;;;;;;2.55;2.00;;;;;;;;;;5105646;28;20031;-83
2022/09/02 09:50:39;;;;;;;3.95;2.42;;;;;;;;;;5105515;28;20194;-84
2022/09/02 09:53:19;;;;;;;5.47;3.53;;;;;;;;;;5080152;28;20021;-82
2022/09/02 09:56:01;;;;;;;4.75;2.60;;;;;;;;;;5095031;28;20023;-83
2022/09/02 09:58:47;;;;;;;8.98;2.70;;;;;;;;;;5074314;28;20051;-85
2022/09/02 10:01:16;;;;;;;4.78;2.65;;;;;;;;;;5073575;28;20142;-83
2022/09/02 10:03:47;;;;;;;4.95;3.17;;;;;;;;;;5106671;28;20051;-83
2022/09/02 10:06:21;;;;;;;4.82;3.40;;;;;;;;;;5099466;28;20466;-82
2022/09/02 10:08:52;;;;;;;4.15;3.42;;;;;;;;;;5076142;28;20059;-86
2022/09/02 10:11:37;;;;;;;3.67;2.60;;;;;;;;;;5117100;27;20028;-86
2022/09/02 10:14:05;;;;;;;4.07;2.53;;;;;;;;;;5082164;28;20048;-83
2022/09/02 10:16:57;;;;;;;5.13;3.65;;;;;;;;;;5087723;28;20387;-80
2022/09/02 10:19:28;;;;;;;3.78;2.83;;;;;;;;;;5089764;28;20022;-81
2022/09/02 10:22:03;;;;;;;4.05;3.25;;;;;;;;;;5111281;28;20020;-79
2022/09/02 10:24:50;;;;;;;4.15;2.30;;;;;;;;;;5079905;28;20020;-83
2022/09/02 10:27:17;;;;;;;9.60;7.00;;;;;;;;;;5112839;27;20040;-83
2022/09/02 10:29:46;;;;;;;17.55;12.73;;;;;;;;;;5110942;28;20039;-82
2022/09/02 10:32:12;;;;;;;9.75;7.55;;;;;;;;;;5087780;28;20042;-82
2022/09/02 10:34:39;;;;;;;3.90;2.90;;;;;;;;;;5088631;28;20097;-82
2022/09/02 10:37:11;;;;;;;4.95;3.75;;;;;;;;;;5090386;28;20028;-81
2022/09/02 10:39:59;;;;;;;6.43;3.50;;;;;;;;;;5117037;27;20055;-84
2022/09/02 10:42:39;;;;;;;5.50;2.55;;;;;;;;;;5078679;28;20028;-81
2022/09/02 10:45:11;;;;;;;6.53;5.13;;;;;;;;;;5102460;28;20024;-81
2022/09/02 10:47:40;;;;;;;3.50;2.53;;;;;;;;;;5089136;28;20024;-82
2022/09/02 10:50:33;;;;;;;4.05;3.08;;;;;;;;;;5108839;28;20024;-80
2022/09/02 10:53:22;;;;;;;5.57;2.53;;;;;;;;;;5049278;28;20028;-80
2022/09/02 10:55:57;;;;;;;4.85;3.00;;;;;;;;;;5083982;28;20069;-82
2022/09/02 10:58:38;;;;;;;8.38;4.28;;;;;;;;;;5087809;28;20033;-82
2022/09/02 11:01:07;;;;;;;8.68;5.95;;;;;;;;;;5076007;28;20055;-82
2022/09/02 11:03:38;;;;;;;3.58;2.65;;;;;;;;;;5083483;28;20106;-85
2022/09/02 11:06:09;;;;;;;4.72;3.25;;;;;;;;;;5079580;28;20027;-83
2022/09/02 11:08:51;;;;;;;4.57;3.42;;;;;;;;;;5107559;28;20038;-82
2022/09/02 11:11:39;;;;;;;5.25;4.03;;;;;;;;;;5113071;28;20023;-82
2022/09/02 11:14:08;;;;;;;3.38;2.22;;;;;;;;;;5079302;28;20142;-86
2022/09/02 11:16:38;;;;;;;3.97;3.05;;;;;;;;;;5116684;27;20035;-82
2022/09/02 11:19:07;;;;;;;3.38;2.08;;;;;;;;;;5076801;28;20028;-84
2022/09/02 11:21:42;;;;;;;6.38;3.90;;;;;;;;;;5115741;27;20462;-83
2022/09/02 11:24:34;;;;;;;11.45;6.20;;;;;;;;;;5080524;28;20142;-82
2022/09/02 11:27:04;;;;;;;4.97;4.05;;;;;;;;;;5071041;28;20043;-85
2022/09/02 11:29:30;;;;;;;5.05;4.03;;;;;;;;;;5118353;27;20028;-82
2022/09/02 11:32:01;;;;;;;6.18;4.45;;;;;;;;;;5112047;27;20020;-80
2022/09/02 11:34:36;;;;;;;3.90;3.17;;;;;;;;;;5103446;28;20139;-82
2022/09/02 11:37:07;;;;;;;3.05;2.35;;;;;;;;;;5082212;28;20035;-84
2022/09/02 11:39:41;;;;;;;5.05;3.58;;;;;;;;;;5115113;28;20534;-85
2022/09/02 11:42:30;;;;;;;6.57;4.78;;;;;;;;;;5076615;28;20028;-84
2022/09/02 11:45:16;;;;;;;2.80;2.50;;;;;;;;;;5072414;28;20063;-81
2022/09/02 11:47:56;;;;;;;2.72;2.20;;;;;;;;;;5079555;28;20032;-83
2022/09/02 11:50:30;;;;;;;3.30;2.63;;;;;;;;;;5092402;28;20115;-81
2022/09/02 11:53:15;;;;;;;4.10;2.58;;;;;;;;;;5096238;28;20463;-84
2022/09/02 11:56:02;;;;;;;4.45;3.58;;;;;;;;;;5109356;28;20122;-83
2022/09/02 11:58:31;;;;;;;3.38;3.00;;;;;;;;;;5066660;28;20017;-80
2022/09/02 12:01:00;;;;;;;8.70;5.18;;;;;;;;;;5074467;28;20031;-86
2022/09/02 12:03:29;;;;;;;6.55;4.53;;;;;;;;;;5074188;28;20030;-83
2022/09/02 12:06:15;;;;;;;6.13;4.90;;;;;;;;;;5109737;28;20016;-81
2022/09/02 12:08:42;;;;;;;6.50;4.00;;;;;;;;;;5085282;28;20074;-80
2022/09/02 12:11:10;;;;;;;4.88;3.90;;;;;;;;;;5085982;28;20026;-83
2022/09/02 12:13:39;;;;;;;6.50;4.40;;;;;;;;;;5077146;28;20388;-81
2022/09/02 12:16:14;;;;;;;6.30;5.30;;;;;;;;;;5077511;28;20054;-86
2022/09/02 12:18:42;;;;;;;5.57;3.95;;;;;;;;;;5108129;28;20024;-84
2022/09/02 12:21:10;;;;;;;5.03;4.50;;;;;;;;;;5063894;28;20471;-82
2022/09/02 12:23:48;;;;;;;6.15;3.80;;;;;;;;;;5118937;28;20020;-82
2022/09/02 12:26:15;;;;;;;4.35;3.67;;;;;;;;;;5078117;28;20111;-87
2022/09/02 12:28:45;;;;;;;9.15;6.03;;;;;;;;;;5094659;28;20036;-84
2022/09/02 12:31:16;;;;;;;6.63;5.22;;;;;;;;;;5078511;28;20065;-81
2022/09/02 12:33:53;;;;;;;5.70;4.93;;;;;;;;;;5115678;28;20023;-85
2022/09/02 12:36:41;;;;;;;6.13;5.00;;;;;;;;;;5078741;28;20032;-80
2022/09/02 12:39:28;;;;;;;7.90;5.60;;;;;;;;;;5063255;28;20491;-80
2022/09/02 12:41:57;;;;;;;4.93;4.22;;;;;;;;;;5126475;28;20031;-80
2022/09/02 12:44:38;;;;;;;4.95;3.78;;;;;;;;;;5075296;28;20458;-80
2022/09/02 12:47:06;;;;;;;5.93;4.78;;;;;;;;;;5075247;28;20024;-81
2022/09/02 12:49:35;;;;;;;7.35;5.35;;;;;;;;;;5122961;28;20038;-81
2022/09/02 12:52:03;;;;;;;7.63;6.85;;;;;;;;;;5067427;28;20016;-80
2022/09/02 12:54:38;;;;;;;4.40;4.00;;;;;;;;;;5088809;28;21485;-86
2022/09/02 12:57:08;;;;;;;5.07;4.57;;;;;;;;;;5113914;28;20038;-85
2022/09/02 12:59:39;;;;;;;8.00;6.00;;;;;;;;;;5106903;28;20024;-84
2022/09/02 13:02:24;;;;;;;8.60;6.90;;;;;;;;;;5080715;28;20035;-84
2022/09/02 13:05:10;;;;;;;8.30;4.88;;;;;;;;;;5096510;28;20025;-84
2022/09/02 13:08:04;;;;;;;8.93;5.75;;;;;;;;;;5111024;28;20385;-83
2022/09/02 13:10:42;;;;;;;7.07;5.32;;;;;;;;;;5094252;28;20359;-80
2022/09/02 13:13:11;;;;;;;17.88;6.03;;;;;;;;;;5110901;28;20032;-82
2022/09/02 13:15:43;;;;;;;8.70;6.90;;;;;;;;;;5125075;27;20024;-81
2022/09/02 13:18:35;;;;;;;12.00;8.75;;;;;;;;;;5076746;28;20024;-83
2022/09/02 13:21:09;;;;;;;5.20;4.43;;;;;;;;;;5111140;28;20028;-86
2022/09/02 13:23:38;;;;;;;13.27;5.88;;;;;;;;;;5120595;27;20024;-80
2022/09/02 13:26:10;;;;;;;20.27;11.70;;;;;;;;;;5095601;28;20027;-80
2022/09/02 13:28:45;;;;;;;17.90;8.52;;;;;;;;;;5075668;28;20043;-82
2022/09/02 13:31:21;;;;;;;6.40;5.45;;;;;;;;;;5105360;28;20024;-78
2022/09/02 13:33:57;;;;;;;17.98;6.38;;;;;;;;;;5088681;28;20027;-80
2022/09/02 13:36:38;;;;;;;7.00;5.18;;;;;;;;;;5081552;28;20036;-81
2022/09/02 13:39:15;;;;;;;10.30;7.13;;;;;;;;;;5108049;28;20147;-80
2022/09/02 13:41:41;;;;;;;22.85;11.27;;;;;;;;;;5112821;27;20459;-79
2022/09/02 13:44:08;;;;;;;6.97;4.80;;;;;;;;;;5117747;27;20039;-82
2022/09/02 13:46:43;;;;;;;15.38;8.15;;;;;;;;;;5107003;27;20552;-80
2022/09/02 13:49:17;;;;;;;8.40;6.85;;;;;;;;;;5066451;28;20051;-79
2022/09/02 13:51:44;;;;;;;6.82;5.65;;;;;;;;;;5073882;28;20020;-80
2022/09/02 13:54:10;;;;;;;6.25;5.13;;;;;;;;;;5095540;28;20021;-80
2022/09/02 13:56:36;;;;;;;6.43;4.45;;;;;;;;;;5075616;28;20383;-79
2022/09/02 13:59:02;;;;;;;6.60;5.57;;;;;;;;;;5073941;28;20020;-79
2022/09/02 14:01:33;;;;;;;14.30;6.50;;;;;;;;;;5079048;28;20463;-79
2022/09/02 14:04:19;;;;;;;10.32;5.20;;;;;;;;;;5102183;28;20107;-79
2022/09/02 14:06:47;;;;;;;15.15;7.22;;;;;;;;;;5072504;28;20418;-78
2022/09/02 14:09:26;;;;;;;14.27;6.10;;;;;;;;;;5098885;27;20168;-80
2022/09/02 14:11:53;;;;;;;7.70;5.50;;;;;;;;;;5077991;28;20033;-79
2022/09/02 14:14:21;;;;;;;10.90;6.00;;;;;;;;;;5109140;28;20070;-84
2022/09/02 14:16:47;;;;;;;7.60;5.88;;;;;;;;;;5075763;28;20030;-83